Huvudsida
METAR-TAF:

METAR-TAF

Flygplatser :

Ålborgs flygplats

Ålborg, Danmark

latitud: 57-06N, longitud: 009-51E, höjd: 3 m

Aktuellt väderrapport

Denna rapport gjordes för 26 minuter sedan, klockan 18:50 UTC
Vind 15 kt från nordväst i byarna ända upp till 27 kt, varierande mellan väst/nordväst och nord
Temperatur 11°C
Fuktighet 50%
Tryck 1003 hPa
Sikt 10 km eller mer

METAR: EKYT 231850Z AUTO 32015G27KT 290V360 9999NDV FEW055/// BKN220/// 11/01 Q1003

Tid: 21:16 (19:16 UTC)

Väderprognos

Denna rapport gjordes för 1 timme och 49 minuter sedan, klockan 17:27 UTC
Prognos gäller från 23 kl. 18 UTC till 24 kl. 18 UTC
Vind 18 kt från väst/nordväst i byarna ända upp till 30 kt
Sikt 10 km eller mer
Få moln på en höjd av 3000 ft
Blir
från 24 kl. 00 UTC till 24 kl. 03 UTC
Vind 14 kt från nordväst

TAF: EKYT 231727Z 2318/2418 30018G30KT 9999 FEW030 BECMG 2400/2403 31014KT

Aktuella väderrapporter och prognoser från 4000 flygplatser (METAR- och TAF-rapporter).

De tillgängliga stationerna syns som gula och röda prickar på kartan.

För musen över prickarna för att se namnen på stationerna.

Klicka sedan för att få väderrapporter och prognoser.

För att ändra kartan: Klicka på de gröna knapparna med ett svart kors på för att zooma in; den gröna knappen med ett streck på för att zooma ut; eller på de gröna pilarna för angränsande kartor.


METAR-TAF: